BAW273 EGLL-KSAN
Flight info
| Callsign | BAW273 |
|---|---|
| Flight time | N/A |
| Altitude | 34000 |
| Route | UMLAT T418 WELIN T420 TNT UL28 RODOL UM65 TENSO L603 BELOX DCT APSOV DCT OSBOX DCT AGORI/M085F340 DCT 58N020W 5930N03000W 60N040W 60N050W/M084F360 DCT RADUN DCT MUSLO/N0498F360 DCT RODBO DCT TUNNI DCT 5830N08000W/N0497F380 5530N09000W DCT SEGAP DCT MOT DCT KU09W DCT KD90U DCT BOY/N0484F400 DCT DTA DCT WINEN DCT OVETO J107 BLD DCT HAKMN Q73 LVELL LUCKI1 |
| Aircraft | A35K/H-SDE2E3GHIJ3J4J5LM1ORWXY/LB1D1 |
Departure
| Time | 2026-05-06 04:49 |
|---|---|
| Airport | London Heathrow Airport (EGLL) |
Arrival
| Time | N/A |
|---|---|
| Airport | San Diego International Airport (KSAN) |
| Time | Latitude | Longitude | Altitude | Speed | Heading |
|---|---|---|---|---|---|
| 2026-05-06 04:26 | 51.47123 | -0.47730 | 92 ft | 0 kts | 89° |
| 2026-05-06 04:37 | 51.47123 | -0.47738 | 92 ft | 2 kts | 89° |
| 2026-05-06 04:37 | 51.47123 | -0.47769 | 92 ft | 3 kts | 89° |
| 2026-05-06 04:37 | 51.47122 | -0.47800 | 90 ft | 2 kts | 89° |
| 2026-05-06 04:38 | 51.47124 | -0.47831 | 90 ft | 3 kts | 108° |
| 2026-05-06 04:38 | 51.47132 | -0.47857 | 90 ft | 3 kts | 142° |
| 2026-05-06 04:38 | 51.47149 | -0.47871 | 94 ft | 3 kts | 172° |
| 2026-05-06 04:38 | 51.47167 | -0.47873 | 93 ft | 2 kts | 179° |
| 2026-05-06 04:39 | 51.47176 | -0.47873 | 92 ft | 1 kts | 179° |
| 2026-05-06 04:39 | 51.47177 | -0.47873 | 92 ft | 0 kts | 179° |
| 2026-05-06 04:42 | 51.47167 | -0.47873 | 92 ft | 2 kts | 179° |
| 2026-05-06 04:42 | 51.47143 | -0.47872 | 92 ft | 4 kts | 179° |
| 2026-05-06 04:42 | 51.47103 | -0.47871 | 92 ft | 9 kts | 179° |
| 2026-05-06 04:43 | 51.47015 | -0.47870 | 92 ft | 14 kts | 180° |
| 2026-05-06 04:43 | 51.46912 | -0.47869 | 93 ft | 16 kts | 179° |
| 2026-05-06 04:43 | 51.46810 | -0.47868 | 92 ft | 11 kts | 179° |
| 2026-05-06 04:43 | 51.46729 | -0.47867 | 92 ft | 12 kts | 179° |
| 2026-05-06 04:44 | 51.46671 | -0.47897 | 96 ft | 7 kts | 233° |
| 2026-05-06 04:44 | 51.46653 | -0.47997 | 95 ft | 13 kts | 269° |
| 2026-05-06 04:44 | 51.46653 | -0.48149 | 92 ft | 14 kts | 270° |
| 2026-05-06 04:44 | 51.46653 | -0.48314 | 92 ft | 15 kts | 270° |
| 2026-05-06 04:45 | 51.46653 | -0.48495 | 92 ft | 17 kts | 270° |
| 2026-05-06 04:45 | 51.46652 | -0.48624 | 92 ft | 11 kts | 270° |
| 2026-05-06 04:45 | 51.46652 | -0.48697 | 92 ft | 6 kts | 265° |
| 2026-05-06 04:45 | 51.46635 | -0.48735 | 96 ft | 0 kts | 222° |
| 2026-05-06 04:46 | 51.46635 | -0.48736 | 96 ft | 1 kts | 222° |
| 2026-05-06 04:46 | 51.46626 | -0.48747 | 95 ft | 3 kts | 215° |
| 2026-05-06 04:46 | 51.46603 | -0.48763 | 97 ft | 5 kts | 202° |
| 2026-05-06 04:47 | 51.46567 | -0.48783 | 93 ft | 6 kts | 192° |
| 2026-05-06 04:47 | 51.46518 | -0.48777 | 95 ft | 8 kts | 163° |
| 2026-05-06 04:47 | 51.46480 | -0.48710 | 96 ft | 9 kts | 110° |
| 2026-05-06 04:47 | 51.46478 | -0.48621 | 96 ft | 0 kts | 89° |
| 2026-05-06 04:48 | 51.46479 | -0.48477 | 92 ft | 42 kts | 89° |
| 2026-05-06 04:49 | 51.46482 | -0.47596 | 94 ft | 114 kts | 90° |
| 2026-05-06 04:49 | 51.46489 | -0.45986 | 93 ft | 173 kts | 88° |
| 2026-05-06 04:49 | 51.46511 | -0.43968 | 712 ft | 180 kts | 87° |
| 2026-05-06 04:49 | 51.46485 | -0.41981 | 1585 ft | 181 kts | 92° |
| 2026-05-06 04:50 | 51.46126 | -0.39938 | 1898 ft | 205 kts | 113° |
| 2026-05-06 04:50 | 51.45140 | -0.38151 | 2159 ft | 232 kts | 142° |
| 2026-05-06 04:50 | 51.43555 | -0.37249 | 2384 ft | 260 kts | 175° |
| 2026-05-06 04:50 | 51.41765 | -0.37912 | 2913 ft | 269 kts | 211° |
| 2026-05-06 04:51 | 51.40464 | -0.40001 | 3595 ft | 266 kts | 244° |
| 2026-05-06 04:51 | 51.40068 | -0.42820 | 4263 ft | 258 kts | 277° |
| 2026-05-06 04:51 | 51.40325 | -0.45634 | 5021 ft | 256 kts | 284° |
| 2026-05-06 04:51 | 51.40677 | -0.48441 | 5620 ft | 258 kts | 284° |
| 2026-05-06 04:52 | 51.41020 | -0.51239 | 5944 ft | 259 kts | 283° |
| 2026-05-06 04:52 | 51.41353 | -0.54073 | 5999 ft | 259 kts | 283° |
| 2026-05-06 04:52 | 51.41682 | -0.56921 | 5994 ft | 261 kts | 283° |
| 2026-05-06 04:52 | 51.42006 | -0.59774 | 5993 ft | 260 kts | 283° |
| 2026-05-06 04:53 | 51.42327 | -0.62621 | 5991 ft | 260 kts | 283° |
| 2026-05-06 04:53 | 51.42646 | -0.65474 | 5993 ft | 260 kts | 283° |
| 2026-05-06 04:53 | 51.42964 | -0.68319 | 5991 ft | 260 kts | 282° |
| 2026-05-06 04:53 | 51.43282 | -0.71170 | 5991 ft | 260 kts | 282° |
| 2026-05-06 04:54 | 51.43594 | -0.73989 | 5991 ft | 260 kts | 282° |
| 2026-05-06 04:54 | 51.43919 | -0.76831 | 5991 ft | 260 kts | 283° |
| 2026-05-06 04:54 | 51.44268 | -0.79669 | 5989 ft | 259 kts | 283° |
| 2026-05-06 04:54 | 51.44619 | -0.82503 | 5988 ft | 260 kts | 283° |
| 2026-05-06 04:55 | 51.44968 | -0.85346 | 5987 ft | 260 kts | 283° |
| 2026-05-06 04:55 | 51.45315 | -0.88184 | 5990 ft | 260 kts | 283° |
| 2026-05-06 04:55 | 51.45653 | -0.91026 | 5989 ft | 260 kts | 283° |
| 2026-05-06 04:55 | 51.45979 | -0.93885 | 5991 ft | 260 kts | 283° |
| 2026-05-06 04:56 | 51.46303 | -0.96738 | 5984 ft | 261 kts | 282° |
| 2026-05-06 04:56 | 51.46683 | -0.99581 | 6005 ft | 261 kts | 289° |
| 2026-05-06 04:56 | 51.47460 | -1.02153 | 6308 ft | 261 kts | 307° |
| 2026-05-06 04:56 | 51.48794 | -1.04115 | 6942 ft | 262 kts | 330° |
| 2026-05-06 04:57 | 51.50531 | -1.04973 | 7649 ft | 265 kts | 356° |
| 2026-05-06 04:57 | 51.52348 | -1.04423 | 8305 ft | 272 kts | 24° |
| 2026-05-06 04:57 | 51.53851 | -1.02547 | 9018 ft | 278 kts | 46° |
| 2026-05-06 04:57 | 51.55040 | -1.00064 | 9739 ft | 283 kts | 54° |
| 2026-05-06 04:58 | 51.56087 | -0.97355 | 10301 ft | 291 kts | 57° |
| 2026-05-06 04:58 | 51.57140 | -0.94457 | 10599 ft | 309 kts | 58° |
| 2026-05-06 04:58 | 51.58252 | -0.91445 | 10878 ft | 326 kts | 57° |
| 2026-05-06 04:58 | 51.59473 | -0.88272 | 11154 ft | 342 kts | 56° |
| 2026-05-06 04:59 | 51.60790 | -0.84975 | 11473 ft | 357 kts | 56° |
| 2026-05-06 04:59 | 51.62173 | -0.81596 | 11972 ft | 365 kts | 54° |
| 2026-05-06 04:59 | 51.63591 | -0.78169 | 12579 ft | 370 kts | 55° |
| 2026-05-06 04:59 | 51.65150 | -0.74854 | 13179 ft | 374 kts | 46° |
| 2026-05-06 05:00 | 51.67132 | -0.72142 | 13776 ft | 376 kts | 31° |
| 2026-05-06 05:00 | 51.69514 | -0.70416 | 14297 ft | 378 kts | 14° |
| 2026-05-06 05:00 | 51.72105 | -0.69725 | 14850 ft | 379 kts | 2° |
| 2026-05-06 05:00 | 51.74756 | -0.69708 | 15395 ft | 382 kts | 356° |
| 2026-05-06 05:01 | 51.77386 | -0.70031 | 15914 ft | 386 kts | 353° |
| 2026-05-06 05:01 | 51.80064 | -0.70488 | 16471 ft | 389 kts | 352° |
| 2026-05-06 05:01 | 51.82772 | -0.70956 | 17036 ft | 393 kts | 352° |
| 2026-05-06 05:01 | 51.85507 | -0.71388 | 17605 ft | 397 kts | 353° |
| 2026-05-06 05:02 | 51.88274 | -0.71773 | 18159 ft | 401 kts | 353° |
| 2026-05-06 05:02 | 51.91064 | -0.72121 | 18672 ft | 405 kts | 354° |
| 2026-05-06 05:02 | 51.93890 | -0.72449 | 19178 ft | 409 kts | 354° |
| 2026-05-06 05:02 | 51.96707 | -0.72764 | 19717 ft | 412 kts | 354° |
| 2026-05-06 05:03 | 51.99578 | -0.73091 | 20250 ft | 415 kts | 353° |
| 2026-05-06 05:03 | 52.02428 | -0.73854 | 20768 ft | 417 kts | 344° |
| 2026-05-06 05:03 | 52.05243 | -0.75045 | 21300 ft | 419 kts | 342° |
| 2026-05-06 05:03 | 52.08045 | -0.76395 | 21865 ft | 422 kts | 341° |
| 2026-05-06 05:04 | 52.10853 | -0.77844 | 22372 ft | 425 kts | 340° |
| 2026-05-06 05:04 | 52.13677 | -0.79345 | 22889 ft | 428 kts | 340° |
| 2026-05-06 05:04 | 52.16517 | -0.80865 | 23415 ft | 431 kts | 340° |
| 2026-05-06 05:04 | 52.19384 | -0.82397 | 23880 ft | 435 kts | 340° |
| 2026-05-06 05:05 | 52.22225 | -0.83915 | 24308 ft | 437 kts | 339° |
| 2026-05-06 05:05 | 52.25028 | -0.85833 | 24744 ft | 438 kts | 331° |
| 2026-05-06 05:05 | 52.27715 | -0.88216 | 25172 ft | 440 kts | 328° |
| 2026-05-06 05:05 | 52.30365 | -0.90734 | 25626 ft | 442 kts | 327° |
| 2026-05-06 05:06 | 52.33003 | -0.93337 | 26061 ft | 444 kts | 327° |
| 2026-05-06 05:06 | 52.35648 | -0.95994 | 26487 ft | 447 kts | 327° |
| 2026-05-06 05:06 | 52.38302 | -0.98675 | 26897 ft | 450 kts | 327° |
| 2026-05-06 05:06 | 52.40970 | -1.01368 | 27351 ft | 451 kts | 327° |
| 2026-05-06 05:07 | 52.43132 | -1.03546 | 27707 ft | 453 kts | 327° |
| 2026-05-06 05:07 | 52.45797 | -1.06228 | 28094 ft | 456 kts | 327° |
| 2026-05-06 05:07 | 52.48507 | -1.08952 | 28477 ft | 459 kts | 327° |
| 2026-05-06 05:07 | 52.51238 | -1.11691 | 28857 ft | 461 kts | 327° |
| 2026-05-06 05:08 | 52.53981 | -1.14448 | 29244 ft | 464 kts | 327° |
| 2026-05-06 05:08 | 52.56740 | -1.17227 | 29598 ft | 466 kts | 327° |
| 2026-05-06 05:08 | 52.59514 | -1.20018 | 29961 ft | 469 kts | 327° |
| 2026-05-06 05:08 | 52.62294 | -1.22828 | 30247 ft | 471 kts | 327° |
| 2026-05-06 05:09 | 52.65096 | -1.25667 | 30508 ft | 473 kts | 326° |
| 2026-05-06 05:09 | 52.67904 | -1.28517 | 30783 ft | 475 kts | 326° |
| 2026-05-06 05:09 | 52.70681 | -1.31339 | 31044 ft | 477 kts | 327° |
| 2026-05-06 05:09 | 52.73516 | -1.34212 | 31336 ft | 479 kts | 327° |
| 2026-05-06 05:10 | 52.76351 | -1.37101 | 31704 ft | 478 kts | 326° |
| 2026-05-06 05:10 | 52.79168 | -1.39977 | 32113 ft | 476 kts | 326° |
| 2026-05-06 05:10 | 52.81982 | -1.42859 | 32440 ft | 475 kts | 326° |
| 2026-05-06 05:10 | 52.84792 | -1.45739 | 32752 ft | 475 kts | 326° |
| 2026-05-06 05:11 | 52.87599 | -1.48620 | 33066 ft | 475 kts | 326° |
| 2026-05-06 05:11 | 52.90408 | -1.51507 | 33367 ft | 474 kts | 326° |
| 2026-05-06 05:11 | 52.93164 | -1.54342 | 33756 ft | 472 kts | 326° |
| 2026-05-06 05:11 | 52.95954 | -1.57216 | 34003 ft | 473 kts | 326° |
| 2026-05-06 05:12 | 52.98755 | -1.60108 | 34028 ft | 477 kts | 326° |
| 2026-05-06 05:12 | 53.04393 | -1.65939 | 34031 ft | 478 kts | 326° |
| 2026-05-06 05:13 | 53.10036 | -1.71787 | 34039 ft | 478 kts | 326° |
| 2026-05-06 05:13 | 53.15633 | -1.77621 | 34045 ft | 477 kts | 325° |
| 2026-05-06 05:14 | 53.21259 | -1.83505 | 34040 ft | 477 kts | 325° |
| 2026-05-06 05:14 | 53.26916 | -1.89336 | 34047 ft | 478 kts | 327° |
| 2026-05-06 05:15 | 53.32725 | -1.94796 | 34047 ft | 479 kts | 328° |
| 2026-05-06 05:15 | 53.38561 | -2.00210 | 34046 ft | 479 kts | 328° |
| 2026-05-06 05:16 | 53.44335 | -2.05658 | 34050 ft | 479 kts | 328° |
| 2026-05-06 05:16 | 53.50117 | -2.11180 | 34051 ft | 478 kts | 327° |
| 2026-05-06 05:17 | 53.55758 | -2.17010 | 34048 ft | 474 kts | 320° |
| 2026-05-06 05:17 | 53.60322 | -2.24869 | 34047 ft | 468 kts | 303° |
| 2026-05-06 05:18 | 53.63268 | -2.34458 | 34048 ft | 464 kts | 291° |
| 2026-05-06 05:18 | 53.65626 | -2.44602 | 34047 ft | 464 kts | 289° |
| 2026-05-06 05:19 | 53.67894 | -2.54784 | 34049 ft | 464 kts | 289° |
| 2026-05-06 05:19 | 53.70176 | -2.64975 | 34051 ft | 464 kts | 289° |
| 2026-05-06 05:20 | 53.72464 | -2.75134 | 34056 ft | 462 kts | 289° |
| 2026-05-06 05:20 | 53.74724 | -2.85191 | 34056 ft | 461 kts | 289° |
| 2026-05-06 05:21 | 53.76992 | -2.95331 | 34056 ft | 461 kts | 289° |
| 2026-05-06 05:21 | 53.79249 | -3.05477 | 34056 ft | 461 kts | 289° |
| 2026-05-06 05:22 | 53.81494 | -3.15623 | 34054 ft | 461 kts | 289° |
| 2026-05-06 05:22 | 53.83716 | -3.25708 | 34056 ft | 460 kts | 289° |
| 2026-05-06 05:23 | 53.85941 | -3.35862 | 34057 ft | 460 kts | 289° |
| 2026-05-06 05:23 | 53.89543 | -3.50929 | 34061 ft | 461 kts | 296° |
| 2026-05-06 05:24 | 53.92649 | -3.60455 | 34059 ft | 462 kts | 297° |
| 2026-05-06 05:24 | 53.95851 | -3.69918 | 34060 ft | 462 kts | 298° |
| 2026-05-06 05:25 | 53.99032 | -3.79318 | 34056 ft | 462 kts | 297° |
| 2026-05-06 05:25 | 54.02219 | -3.88811 | 34056 ft | 462 kts | 297° |
| 2026-05-06 05:26 | 54.05391 | -3.98323 | 34056 ft | 462 kts | 297° |
| 2026-05-06 05:26 | 54.08534 | -4.07788 | 34055 ft | 462 kts | 297° |
| 2026-05-06 05:27 | 54.11687 | -4.17317 | 34053 ft | 462 kts | 297° |
| 2026-05-06 05:27 | 54.14837 | -4.26864 | 34055 ft | 462 kts | 297° |
| 2026-05-06 05:28 | 54.17949 | -4.36336 | 33657 ft | 450 kts | 297° |
| 2026-05-06 05:28 | 54.19472 | -4.40977 | 32935 ft | 449 kts | 297° |
| 2026-05-06 05:28 | 54.21000 | -4.45655 | 31986 ft | 453 kts | 297° |
| 2026-05-06 05:29 | 54.22355 | -4.50538 | 31046 ft | 456 kts | 290° |